sensor_id;sensor_type;location;lat;lon;timestamp;pressure;altitude;pressure_sealevel;temperature;humidity
7614;BME280;3848;42.016;23.098;2023-03-03T00:01:14;97106.88;;;8.26;100.00
7614;BME280;3848;42.016;23.098;2023-03-03T00:03:42;97105.19;;;8.30;100.00
7614;BME280;3848;42.016;23.098;2023-03-03T00:06:10;97088.31;;;8.23;100.00
7614;BME280;3848;42.016;23.098;2023-03-03T00:08:37;97094.22;;;8.22;100.00
7614;BME280;3848;42.016;23.098;2023-03-03T00:11:06;97100.97;;;8.24;100.00
7614;BME280;3848;42.016;23.098;2023-03-03T00:13:39;97102.66;;;8.21;100.00
7614;BME280;3848;42.016;23.098;2023-03-03T00:16:22;97098.44;;;8.18;100.00
7614;BME280;3848;42.016;23.098;2023-03-03T00:18:50;97095.06;;;8.18;100.00
7614;BME280;3848;42.016;23.098;2023-03-03T00:21:23;97095.06;;;8.24;100.00
7614;BME280;3848;42.016;23.098;2023-03-03T00:23:54;97095.91;;;8.26;100.00
7614;BME280;3848;42.016;23.098;2023-03-03T00:26:29;97095.88;;;8.32;100.00
7614;BME280;3848;42.016;23.098;2023-03-03T00:28:58;97089.19;;;8.39;100.00
7614;BME280;3848;42.016;23.098;2023-03-03T00:31:29;97080.69;;;8.32;100.00
7614;BME280;3848;42.016;23.098;2023-03-03T00:34:10;97088.34;;;8.41;100.00
7614;BME280;3848;42.016;23.098;2023-03-03T00:36:45;97086.66;;;8.40;100.00
7614;BME280;3848;42.016;23.098;2023-03-03T00:39:21;97081.59;;;8.40;100.00
7614;BME280;3848;42.016;23.098;2023-03-03T00:41:53;97057.09;;;8.29;100.00
7614;BME280;3848;42.016;23.098;2023-03-03T00:44:41;97082.44;;;8.44;100.00
7614;BME280;3848;42.016;23.098;2023-03-03T00:47:26;97069.78;;;8.44;100.00
7614;BME280;3848;42.016;23.098;2023-03-03T00:49:55;97074.00;;;8.46;100.00
7614;BME280;3848;42.016;23.098;2023-03-03T00:52:26;97077.38;;;8.47;100.00
7614;BME280;3848;42.016;23.098;2023-03-03T00:54:54;97071.47;;;8.43;100.00
7614;BME280;3848;42.016;23.098;2023-03-03T00:57:22;97073.13;;;8.29;100.00
7614;BME280;3848;42.016;23.098;2023-03-03T00:59:49;97068.06;;;8.23;100.00
7614;BME280;3848;42.016;23.098;2023-03-03T01:02:16;97061.31;;;8.20;100.00
7614;BME280;3848;42.016;23.098;2023-03-03T01:04:47;97062.16;;;8.22;100.00
7614;BME280;3848;42.016;23.098;2023-03-03T01:07:16;97063.84;;;8.23;100.00
7614;BME280;3848;42.016;23.098;2023-03-03T01:09:42;97058.78;;;8.20;100.00
7614;BME280;3848;42.016;23.098;2023-03-03T01:12:10;97057.09;;;8.22;100.00
7614;BME280;3848;42.016;23.098;2023-03-03T01:14:38;97061.28;;;8.31;100.00
7614;BME280;3848;42.016;23.098;2023-03-03T01:17:05;97057.09;;;8.19;100.00
7614;BME280;3848;42.016;23.098;2023-03-03T01:19:32;97049.50;;;8.10;100.00
7614;BME280;3848;42.016;23.098;2023-03-03T01:21:59;97060.47;;;8.20;100.00
7614;BME280;3848;42.016;23.098;2023-03-03T01:24:26;97058.78;;;8.13;100.00
7614;BME280;3848;42.016;23.098;2023-03-03T01:26:53;97059.59;;;8.09;100.00
7614;BME280;3848;42.016;23.098;2023-03-03T01:29:20;97060.47;;;8.08;100.00
7614;BME280;3848;42.016;23.098;2023-03-03T01:31:48;97056.25;;;8.01;100.00
7614;BME280;3848;42.016;23.098;2023-03-03T01:34:14;97057.94;;;7.92;100.00
7614;BME280;3848;42.016;23.098;2023-03-03T01:36:41;97062.13;;;7.89;100.00
7614;BME280;3848;42.016;23.098;2023-03-03T01:39:09;97051.16;;;7.84;100.00
7614;BME280;3848;42.016;23.098;2023-03-03T01:41:37;97064.66;;;7.87;100.00
7614;BME280;3848;42.016;23.098;2023-03-03T01:44:04;96936.44;;;7.13;100.00
7614;BME280;3848;42.016;23.098;2023-03-03T01:46:52;97054.53;;;7.81;100.00
7614;BME280;3848;42.016;23.098;2023-03-03T01:49:22;97052.84;;;7.83;100.00
7614;BME280;3848;42.016;23.098;2023-03-03T01:51:53;97046.94;;;7.86;100.00
7614;BME280;3848;42.016;23.098;2023-03-03T01:54:24;97048.63;;;7.81;100.00
7614;BME280;3848;42.016;23.098;2023-03-03T01:56:54;97046.09;;;7.82;100.00
7614;BME280;3848;42.016;23.098;2023-03-03T01:59:27;97051.16;;;7.82;100.00
7614;BME280;3848;42.016;23.098;2023-03-03T02:01:56;97044.41;;;7.72;100.00
7614;BME280;3848;42.016;23.098;2023-03-03T02:04:23;97056.22;;;7.76;100.00
7614;BME280;3848;42.016;23.098;2023-03-03T02:06:56;97050.31;;;7.79;100.00
7614;BME280;3848;42.016;23.098;2023-03-03T02:09:31;97040.19;;;7.85;100.00
7614;BME280;3848;42.016;23.098;2023-03-03T02:12:02;97044.41;;;7.87;100.00
7614;BME280;3848;42.016;23.098;2023-03-03T02:14:30;97045.25;;;7.83;100.00
7614;BME280;3848;42.016;23.098;2023-03-03T02:16:58;97038.50;;;7.79;100.00
7614;BME280;3848;42.016;23.098;2023-03-03T02:19:32;97052.84;;;7.83;100.00
7614;BME280;3848;42.016;23.098;2023-03-03T02:22:01;97041.88;;;7.83;100.00
7614;BME280;3848;42.016;23.098;2023-03-03T02:24:32;97044.41;;;7.84;100.00
7614;BME280;3848;42.016;23.098;2023-03-03T02:27:01;97042.72;;;7.86;100.00
7614;BME280;3848;42.016;23.098;2023-03-03T02:29:28;97047.78;;;7.89;100.00
7614;BME280;3848;42.016;23.098;2023-03-03T02:31:55;97037.66;;;7.85;100.00
7614;BME280;3848;42.016;23.098;2023-03-03T02:34:22;97033.47;;;7.76;100.00
7614;BME280;3848;42.016;23.098;2023-03-03T02:36:49;97034.31;;;7.78;100.00
7614;BME280;3848;42.016;23.098;2023-03-03T02:39:19;97032.63;;;7.80;100.00
7614;BME280;3848;42.016;23.098;2023-03-03T02:41:49;97026.72;;;7.81;100.00
7614;BME280;3848;42.016;23.098;2023-03-03T02:44:20;97032.59;;;7.89;100.00
7614;BME280;3848;42.016;23.098;2023-03-03T02:46:49;97040.19;;;7.88;100.00
7614;BME280;3848;42.016;23.098;2023-03-03T02:49:19;97042.72;;;7.89;100.00
7614;BME280;3848;42.016;23.098;2023-03-03T02:51:46;97047.78;;;7.77;100.00
7614;BME280;3848;42.016;23.098;2023-03-03T02:54:15;97036.00;;;7.73;100.00
7614;BME280;3848;42.016;23.098;2023-03-03T02:56:42;97053.69;;;7.79;100.00
7614;BME280;3848;42.016;23.098;2023-03-03T02:59:09;97046.06;;;7.70;100.00
7614;BME280;3848;42.016;23.098;2023-03-03T03:01:38;97048.59;;;7.61;100.00
7614;BME280;3848;42.016;23.098;2023-03-03T03:04:06;97050.28;;;7.63;100.00
7614;BME280;3848;42.016;23.098;2023-03-03T03:06:34;97034.25;;;7.54;100.00
7614;BME280;3848;42.016;23.098;2023-03-03T03:09:01;97047.75;;;7.68;100.00
7614;BME280;3848;42.016;23.098;2023-03-03T03:11:28;97049.47;;;7.72;100.00
7614;BME280;3848;42.016;23.098;2023-03-03T03:13:54;97045.25;;;7.74;100.00
7614;BME280;3848;42.016;23.098;2023-03-03T03:16:21;97049.47;;;7.72;100.00
7614;BME280;3848;42.016;23.098;2023-03-03T03:18:50;97052.81;;;7.68;100.00
7614;BME280;3848;42.016;23.098;2023-03-03T03:21:17;97046.06;;;7.67;100.00
7614;BME280;3848;42.016;23.098;2023-03-03T03:23:44;97049.44;;;7.68;100.00
7614;BME280;3848;42.016;23.098;2023-03-03T03:26:11;97043.53;;;7.55;100.00
7614;BME280;3848;42.016;23.098;2023-03-03T03:28:38;97046.88;;;7.49;100.00
7614;BME280;3848;42.016;23.098;2023-03-03T03:31:06;97046.06;;;7.52;100.00
7614;BME280;3848;42.016;23.098;2023-03-03T03:33:34;97041.84;;;7.52;100.00
7614;BME280;3848;42.016;23.098;2023-03-03T03:36:02;97044.38;;;7.54;100.00
7614;BME280;3848;42.016;23.098;2023-03-03T03:38:31;97050.28;;;7.50;100.00
7614;BME280;3848;42.016;23.098;2023-03-03T03:40:58;97044.34;;;7.48;100.00
7614;BME280;3848;42.016;23.098;2023-03-03T03:43:25;97036.75;;;7.40;100.00
7614;BME280;3848;42.016;23.098;2023-03-03T03:45:52;97036.69;;;7.28;100.00
7614;BME280;3848;42.016;23.098;2023-03-03T03:48:19;96985.22;;;6.91;100.00
7614;BME280;3848;42.016;23.098;2023-03-03T03:50:46;97027.41;;;7.19;100.00
7614;BME280;3848;42.016;23.098;2023-03-03T03:53:14;97037.53;;;7.25;100.00
7614;BME280;3848;42.016;23.098;2023-03-03T03:55:41;97022.34;;;7.16;100.00
7614;BME280;3848;42.016;23.098;2023-03-03T03:58:09;97034.16;;;7.26;100.00
7614;BME280;3848;42.016;23.098;2023-03-03T04:00:39;97040.06;;;7.28;100.00
7614;BME280;3848;42.016;23.098;2023-03-03T04:03:06;97034.22;;;7.36;100.00
7614;BME280;3848;42.016;23.098;2023-03-03T04:05:32;97034.22;;;7.32;100.00
7614;BME280;3848;42.016;23.098;2023-03-03T04:07:59;97035.00;;;7.27;100.00
7614;BME280;3848;42.016;23.098;2023-03-03T04:10:27;97044.31;;;7.29;100.00
7614;BME280;3848;42.016;23.098;2023-03-03T04:12:54;97037.53;;;7.28;100.00
7614;BME280;3848;42.016;23.098;2023-03-03T04:15:21;97047.69;;;7.31;100.00
7614;BME280;3848;42.016;23.098;2023-03-03T04:17:48;97047.69;;;7.31;100.00
7614;BME280;3848;42.016;23.098;2023-03-03T04:20:15;97044.31;;;7.32;100.00
7614;BME280;3848;42.016;23.098;2023-03-03T04:22:42;97045.13;;;7.24;100.00
7614;BME280;3848;42.016;23.098;2023-03-03T04:25:11;97042.56;;;7.18;100.00
7614;BME280;3848;42.016;23.098;2023-03-03T04:27:41;97048.47;;;7.17;100.00
7614;BME280;3848;42.016;23.098;2023-03-03T04:30:10;97029.00;;;6.96;100.00
7614;BME280;3848;42.016;23.098;2023-03-03T04:32:37;97045.88;;;7.06;100.00
7614;BME280;3848;42.016;23.098;2023-03-03T04:35:05;96980.88;;;6.65;100.00
7614;BME280;3848;42.016;23.098;2023-03-03T04:37:32;97057.66;;;7.04;100.00
7614;BME280;3848;42.016;23.098;2023-03-03T04:39:58;97047.53;;;6.96;100.00
7614;BME280;3848;42.016;23.098;2023-03-03T04:42:25;97049.22;;;6.99;100.00
7614;BME280;3848;42.016;23.098;2023-03-03T04:44:54;97045.84;;;6.91;100.00
7614;BME280;3848;42.016;23.098;2023-03-03T04:47:21;97041.63;;;6.91;100.00
7614;BME280;3848;42.016;23.098;2023-03-03T04:49:48;97045.03;;;6.99;100.00
7614;BME280;3848;42.016;23.098;2023-03-03T04:52:15;97053.44;;;7.04;100.00
7614;BME280;3848;42.016;23.098;2023-03-03T04:54:42;97050.91;;;7.03;100.00
7614;BME280;3848;42.016;23.098;2023-03-03T04:57:08;97039.09;;;6.93;100.00
7614;BME280;3848;42.016;23.098;2023-03-03T04:59:35;97034.06;;;6.93;100.00
7614;BME280;3848;42.016;23.098;2023-03-03T05:02:04;97055.13;;;7.02;100.00
7614;BME280;3848;42.016;23.098;2023-03-03T05:04:31;97056.81;;;7.07;100.00
7614;BME280;3848;42.016;23.098;2023-03-03T05:06:57;97042.50;;;7.01;100.00
7614;BME280;3848;42.016;23.098;2023-03-03T05:09:24;97064.41;;;7.07;100.00
7614;BME280;3848;42.016;23.098;2023-03-03T05:11:51;97061.88;;;7.03;100.00
7614;BME280;3848;42.016;23.098;2023-03-03T05:14:18;97065.22;;;7.02;100.00
7614;BME280;3848;42.016;23.098;2023-03-03T05:16:45;97057.66;;;6.98;100.00
7614;BME280;3848;42.016;23.098;2023-03-03T05:19:13;97050.03;;;6.92;100.00
7614;BME280;3848;42.016;23.098;2023-03-03T05:21:40;97064.38;;;7.00;100.00
7614;BME280;3848;42.016;23.098;2023-03-03T05:24:07;97047.53;;;6.92;100.00
7614;BME280;3848;42.016;23.098;2023-03-03T05:26:34;97052.59;;;6.96;100.00
7614;BME280;3848;42.016;23.098;2023-03-03T05:29:01;97066.91;;;7.03;100.00
7614;BME280;3848;42.016;23.098;2023-03-03T05:31:27;97066.91;;;7.03;100.00
7614;BME280;3848;42.016;23.098;2023-03-03T05:33:54;97066.09;;;7.06;100.00
7614;BME280;3848;42.016;23.098;2023-03-03T05:36:22;97067.81;;;7.10;100.00
7614;BME280;3848;42.016;23.098;2023-03-03T05:38:49;97062.78;;;7.13;100.00
7614;BME280;3848;42.016;23.098;2023-03-03T05:41:16;97054.34;;;7.16;100.00
7614;BME280;3848;42.016;23.098;2023-03-03T05:43:43;97067.00;;;7.26;100.00
7614;BME280;3848;42.016;23.098;2023-03-03T05:46:10;97067.88;;;7.28;100.00
7614;BME280;3848;42.016;23.098;2023-03-03T05:48:37;97064.47;;;7.23;100.00
7614;BME280;3848;42.016;23.098;2023-03-03T05:51:04;97069.53;;;7.25;100.00
7614;BME280;3848;42.016;23.098;2023-03-03T05:53:32;97072.03;;;7.17;100.00
7614;BME280;3848;42.016;23.098;2023-03-03T05:55:59;97077.09;;;7.20;100.00
7614;BME280;3848;42.016;23.098;2023-03-03T05:58:26;97081.31;;;7.21;100.00
7614;BME280;3848;42.016;23.098;2023-03-03T06:00:53;97080.47;;;7.21;100.00
7614;BME280;3848;42.016;23.098;2023-03-03T06:03:20;97075.41;;;7.19;100.00
7614;BME280;3848;42.016;23.098;2023-03-03T06:05:47;97083.84;;;7.17;100.00
7614;BME280;3848;42.016;23.098;2023-03-03T06:08:14;97043.31;;;6.95;100.00
7614;BME280;3848;42.016;23.098;2023-03-03T06:10:42;97081.31;;;7.23;100.00
7614;BME280;3848;42.016;23.098;2023-03-03T06:13:09;97078.81;;;7.26;100.00
7614;BME280;3848;42.016;23.098;2023-03-03T06:15:35;97085.59;;;7.30;100.00
7614;BME280;3848;42.016;23.098;2023-03-03T06:18:02;97083.06;;;7.31;100.00
7614;BME280;3848;42.016;23.098;2023-03-03T06:20:29;97089.75;;;7.28;100.00
7614;BME280;3848;42.016;23.098;2023-03-03T06:22:57;97101.56;;;7.27;100.00
7614;BME280;3848;42.016;23.098;2023-03-03T06:25:24;97098.19;;;7.28;100.00
7614;BME280;3848;42.016;23.098;2023-03-03T06:27:52;97098.19;;;7.28;100.00
7614;BME280;3848;42.016;23.098;2023-03-03T06:30:19;97089.75;;;7.23;100.00
7614;BME280;3848;42.016;23.098;2023-03-03T06:32:46;97100.78;;;7.36;100.00
7614;BME280;3848;42.016;23.098;2023-03-03T06:35:13;97096.56;;;7.37;100.00
7614;BME280;3848;42.016;23.098;2023-03-03T06:37:40;97103.31;;;7.39;100.00
7614;BME280;3848;42.016;23.098;2023-03-03T06:40:08;97101.59;;;7.33;100.00
7614;BME280;3848;42.016;23.098;2023-03-03T06:42:34;97103.28;;;7.36;100.00
7614;BME280;3848;42.016;23.098;2023-03-03T06:45:03;97099.94;;;7.39;100.00
7614;BME280;3848;42.016;23.098;2023-03-03T06:47:30;97091.47;;;7.29;100.00
7614;BME280;3848;42.016;23.098;2023-03-03T06:49:58;97103.31;;;7.39;100.00
7614;BME280;3848;42.016;23.098;2023-03-03T06:52:26;97108.38;;;7.42;100.00
7614;BME280;3848;42.016;23.098;2023-03-03T06:54:54;97105.00;;;7.43;100.00
7614;BME280;3848;42.016;23.098;2023-03-03T06:57:25;97107.59;;;7.54;100.00
7614;BME280;3848;42.016;23.098;2023-03-03T06:59:54;97103.38;;;7.53;100.00
7614;BME280;3848;42.016;23.098;2023-03-03T07:02:24;97101.63;;;7.43;100.00
7614;BME280;3848;42.016;23.098;2023-03-03T07:04:52;97102.47;;;7.42;100.00
7614;BME280;3848;42.016;23.098;2023-03-03T07:07:22;97106.69;;;7.44;100.00
7614;BME280;3848;42.016;23.098;2023-03-03T07:09:52;97101.63;;;7.44;100.00
7614;BME280;3848;42.016;23.098;2023-03-03T07:12:21;97112.59;;;7.48;100.00
7614;BME280;3848;42.016;23.098;2023-03-03T07:14:50;97110.09;;;7.51;100.00
7614;BME280;3848;42.016;23.098;2023-03-03T07:17:24;97112.59;;;7.49;100.00
7614;BME280;3848;42.016;23.098;2023-03-03T07:19:51;97110.97;;;7.60;100.00
7614;BME280;3848;42.016;23.098;2023-03-03T07:22:20;97093.25;;;7.59;100.00
7614;BME280;3848;42.016;23.098;2023-03-03T07:24:49;97098.34;;;7.68;100.00
7614;BME280;3848;42.016;23.098;2023-03-03T07:27:22;97100.00;;;7.63;100.00
7614;BME280;3848;42.016;23.098;2023-03-03T07:29:50;97103.38;;;7.67;100.00
7614;BME280;3848;42.016;23.098;2023-03-03T07:32:25;97105.91;;;7.70;100.00
7614;BME280;3848;42.016;23.098;2023-03-03T07:34:54;97101.72;;;7.70;100.00
7614;BME280;3848;42.016;23.098;2023-03-03T07:37:29;97100.03;;;7.69;100.00
7614;BME280;3848;42.016;23.098;2023-03-03T07:39:57;97095.81;;;7.70;100.00
7614;BME280;3848;42.016;23.098;2023-03-03T07:42:27;97089.91;;;7.66;100.00
7614;BME280;3848;42.016;23.098;2023-03-03T07:44:58;97086.53;;;7.70;100.00
7614;BME280;3848;42.016;23.098;2023-03-03T07:47:29;97100.06;;;7.80;100.00
7614;BME280;3848;42.016;23.098;2023-03-03T07:49:58;97073.88;;;7.70;100.00
7614;BME280;3848;42.016;23.098;2023-03-03T07:52:28;97093.34;;;7.94;100.00
7614;BME280;3848;42.016;23.098;2023-03-03T07:54:58;97094.19;;;8.01;100.00
7614;BME280;3848;42.016;23.098;2023-03-03T07:57:29;97090.81;;;8.00;100.00
7614;BME280;3848;42.016;23.098;2023-03-03T08:00:00;97094.19;;;8.05;100.00
7614;BME280;3848;42.016;23.098;2023-03-03T08:02:40;97086.59;;;8.10;100.00
7614;BME280;3848;42.016;23.098;2023-03-03T08:05:28;97090.00;;;8.19;100.00
7614;BME280;3848;42.016;23.098;2023-03-03T08:08:02;97092.53;;;8.16;100.00
7614;BME280;3848;42.016;23.098;2023-03-03T08:10:40;97089.16;;;8.20;100.00
7614;BME280;3848;42.016;23.098;2023-03-03T08:13:16;97094.22;;;8.28;100.00
7614;BME280;3848;42.016;23.098;2023-03-03T08:15:44;97078.22;;;8.35;100.00
7614;BME280;3848;42.016;23.098;2023-03-03T08:18:18;97081.59;;;8.45;100.00
7614;BME280;3848;42.016;23.098;2023-03-03T08:20:48;97081.59;;;8.48;100.00
7614;BME280;3848;42.016;23.098;2023-03-03T08:23:16;97079.88;;;8.62;100.00
7614;BME280;3848;42.016;23.098;2023-03-03T08:25:45;97083.25;;;8.72;100.00
7614;BME280;3848;42.016;23.098;2023-03-03T08:28:13;97082.41;;;8.68;100.00
7614;BME280;3848;42.016;23.098;2023-03-03T08:30:41;97062.19;;;8.58;100.00
7614;BME280;3848;42.016;23.098;2023-03-03T08:33:08;97070.59;;;8.67;100.00
7614;BME280;3848;42.016;23.098;2023-03-03T08:35:36;97071.44;;;8.75;100.00
7614;BME280;3848;42.016;23.098;2023-03-03T08:38:03;97073.09;;;8.87;100.00
7614;BME280;3848;42.016;23.098;2023-03-03T08:40:31;97074.75;;;8.94;100.00
7614;BME280;3848;42.016;23.098;2023-03-03T08:42:58;97069.69;;;8.94;100.00
7614;BME280;3848;42.016;23.098;2023-03-03T08:45:25;97083.19;;;8.99;100.00
7614;BME280;3848;42.016;23.098;2023-03-03T08:47:52;97073.94;;;8.88;100.00
7614;BME280;3848;42.016;23.098;2023-03-03T08:50:19;97062.97;;;8.81;100.00
7614;BME280;3848;42.016;23.098;2023-03-03T08:52:48;97051.16;;;8.75;100.00
7614;BME280;3848;42.016;23.098;2023-03-03T08:55:15;97074.75;;;8.91;100.00
7614;BME280;3848;42.016;23.098;2023-03-03T08:57:41;97073.06;;;8.89;100.00
7614;BME280;3848;42.016;23.098;2023-03-03T09:00:11;97074.78;;;8.86;100.00
7614;BME280;3848;42.016;23.098;2023-03-03T09:02:38;97082.38;;;8.83;100.00
7614;BME280;3848;42.016;23.098;2023-03-03T09:05:06;97080.72;;;8.81;100.00
7614;BME280;3848;42.016;23.098;2023-03-03T09:07:33;97074.78;;;8.82;100.00
7614;BME280;3848;42.016;23.098;2023-03-03T09:10:03;97058.78;;;8.66;100.00
7614;BME280;3848;42.016;23.098;2023-03-03T09:12:34;97073.94;;;8.80;100.00
7614;BME280;3848;42.016;23.098;2023-03-03T09:15:12;97075.63;;;8.84;100.00
7614;BME280;3848;42.016;23.098;2023-03-03T09:17:40;97074.78;;;8.85;100.00
7614;BME280;3848;42.016;23.098;2023-03-03T09:20:21;97074.78;;;8.83;100.00
7614;BME280;3848;42.016;23.098;2023-03-03T09:22:49;97079.81;;;8.94;100.00
7614;BME280;3848;42.016;23.098;2023-03-03T09:25:30;97070.53;;;8.98;100.00
7614;BME280;3848;42.016;23.098;2023-03-03T09:27:57;97055.38;;;8.82;100.00
7614;BME280;3848;42.016;23.098;2023-03-03T09:30:39;97069.69;;;8.88;100.00
7614;BME280;3848;42.016;23.098;2023-03-03T09:33:25;97057.91;;;8.84;100.00
7614;BME280;3848;42.016;23.098;2023-03-03T09:35:55;97079.81;;;8.91;100.00
7614;BME280;3848;42.016;23.098;2023-03-03T09:38:28;97072.22;;;8.91;100.00
7614;BME280;3848;42.016;23.098;2023-03-03T09:41:33;97072.22;;;8.94;100.00
7614;BME280;3848;42.016;23.098;2023-03-03T09:44:25;97068.84;;;8.88;100.00
7614;BME280;3848;42.016;23.098;2023-03-03T09:47:11;97083.22;;;8.90;100.00
7614;BME280;3848;42.016;23.098;2023-03-03T09:49:50;97076.47;;;8.80;100.00
7614;BME280;3848;42.016;23.098;2023-03-03T09:52:32;97086.63;;;8.77;100.00
7614;BME280;3848;42.016;23.098;2023-03-03T09:55:12;97082.41;;;8.70;100.00
7614;BME280;3848;42.016;23.098;2023-03-03T09:57:59;97020.84;;;8.37;100.00
7614;BME280;3848;42.016;23.098;2023-03-03T10:00:36;97091.69;;;8.71;100.00
7614;BME280;3848;42.016;23.098;2023-03-03T10:06:10;97078.19;;;8.78;100.00
7614;BME280;3848;42.016;23.098;2023-03-03T10:08:51;97093.38;;;8.79;100.00
7614;BME280;3848;42.016;23.098;2023-03-03T10:11:23;97075.66;;;8.63;100.00
7614;BME280;3848;42.016;23.098;2023-03-03T10:14:17;97094.22;;;8.68;100.00
7614;BME280;3848;42.016;23.098;2023-03-03T10:17:25;97092.56;;;8.54;100.00
7614;BME280;3848;42.016;23.098;2023-03-03T10:20:08;97079.91;;;8.47;100.00
7614;BME280;3848;42.016;23.098;2023-03-03T10:22:47;97079.06;;;8.46;100.00
7614;BME280;3848;42.016;23.098;2023-03-03T10:25:24;97079.88;;;8.50;100.00
7614;BME280;3848;42.016;23.098;2023-03-03T10:28:14;97081.56;;;8.62;100.00
7614;BME280;3848;42.016;23.098;2023-03-03T10:30:52;97076.50;;;8.65;100.00
7614;BME280;3848;42.016;23.098;2023-03-03T10:33:32;97078.19;;;8.69;100.00
7614;BME280;3848;42.016;23.098;2023-03-03T10:36:09;97074.81;;;8.64;100.00
7614;BME280;3848;42.016;23.098;2023-03-03T10:38:53;97061.34;;;8.55;100.00
7614;BME280;3848;42.016;23.098;2023-03-03T10:41:42;97069.75;;;8.64;100.00
7614;BME280;3848;42.016;23.098;2023-03-03T10:44:26;97063.81;;;8.71;100.00
7614;BME280;3848;42.016;23.098;2023-03-03T10:47:06;97064.66;;;8.79;100.00
7614;BME280;3848;42.016;23.098;2023-03-03T10:49:49;97062.94;;;8.87;100.00
7614;BME280;3848;42.016;23.098;2023-03-03T10:52:34;97061.25;;;8.92;100.00
7614;BME280;3848;42.016;23.098;2023-03-03T10:55:22;97056.16;;;8.95;100.00
7614;BME280;3848;42.016;23.098;2023-03-03T11:00:45;97056.16;;;9.00;100.00
7614;BME280;3848;42.016;23.098;2023-03-03T11:06:22;97032.50;;;8.95;100.00
7614;BME280;3848;42.016;23.098;2023-03-03T11:08:54;97035.03;;;9.05;100.00
7614;BME280;3848;42.016;23.098;2023-03-03T11:11:31;97042.59;;;9.18;100.00
7614;BME280;3848;42.016;23.098;2023-03-03T11:14:05;97042.59;;;9.19;100.00
7614;BME280;3848;42.016;23.098;2023-03-03T11:16:44;97017.31;;;8.99;100.00
7614;BME280;3848;42.016;23.098;2023-03-03T11:19:32;97043.47;;;9.04;100.00
7614;BME280;3848;42.016;23.098;2023-03-03T11:22:14;97035.84;;;9.09;100.00
7614;BME280;3848;42.016;23.098;2023-03-03T11:24:54;97033.28;;;9.18;100.00
7614;BME280;3848;42.016;23.098;2023-03-03T11:27:40;97035.78;;;9.24;100.00
7614;BME280;3848;42.016;23.098;2023-03-03T11:30:26;97026.44;;;9.31;100.00
7614;BME280;3848;42.016;23.098;2023-03-03T11:33:01;97028.13;;;9.33;100.00
7614;BME280;3848;42.016;23.098;2023-03-03T11:35:37;97031.53;;;9.32;100.00
7614;BME280;3848;42.016;23.098;2023-03-03T11:38:22;97013.81;;;9.26;100.00
7614;BME280;3848;42.016;23.098;2023-03-03T11:40:54;97019.69;;;9.37;100.00
7614;BME280;3848;42.016;23.098;2023-03-03T11:43:26;96947.19;;;9.01;100.00
7614;BME280;3848;42.016;23.098;2023-03-03T11:45:57;97019.56;;;9.54;100.00
7614;BME280;3848;42.016;23.098;2023-03-03T11:48:33;97011.09;;;9.60;100.00
7614;BME280;3848;42.016;23.098;2023-03-03T11:51:05;97009.41;;;9.62;100.00
7614;BME280;3848;42.016;23.098;2023-03-03T11:53:43;97007.69;;;9.64;100.00
7614;BME280;3848;42.016;23.098;2023-03-03T11:56:20;96997.56;;;9.62;100.00
7614;BME280;3848;42.016;23.098;2023-03-03T11:58:53;97011.00;;;9.70;100.00
7614;BME280;3848;42.016;23.098;2023-03-03T12:01:28;96986.63;;;9.51;100.00
7614;BME280;3848;42.016;23.098;2023-03-03T12:04:00;96997.56;;;9.56;100.00
7614;BME280;3848;42.016;23.098;2023-03-03T12:06:36;96996.72;;;9.57;100.00
7614;BME280;3848;42.016;23.098;2023-03-03T12:09:35;96997.59;;;9.55;100.00
7614;BME280;3848;42.016;23.098;2023-03-03T12:12:08;96988.28;;;9.58;100.00
7614;BME280;3848;42.016;23.098;2023-03-03T12:14:56;96993.34;;;9.58;100.00
7614;BME280;3848;42.016;23.098;2023-03-03T12:20:26;96995.03;;;9.58;100.00
7614;BME280;3848;42.016;23.098;2023-03-03T12:23:06;96984.91;;;9.55;100.00
7614;BME280;3848;42.016;23.098;2023-03-03T12:25:40;96987.47;;;9.50;100.00
7614;BME280;3848;42.016;23.098;2023-03-03T12:28:10;96979.88;;;9.50;100.00
7614;BME280;3848;42.016;23.098;2023-03-03T12:33:49;96969.69;;;9.55;100.00
7614;BME280;3848;42.016;23.098;2023-03-03T12:36:28;96974.72;;;9.62;100.00
7614;BME280;3848;42.016;23.098;2023-03-03T12:39:02;96978.97;;;9.57;100.00
7614;BME280;3848;42.016;23.098;2023-03-03T12:41:35;96977.28;;;9.55;100.00
7614;BME280;3848;42.016;23.098;2023-03-03T12:44:07;96956.97;;;9.56;100.00
7614;BME280;3848;42.016;23.098;2023-03-03T12:46:44;96961.22;;;9.54;100.00
7614;BME280;3848;42.016;23.098;2023-03-03T12:49:12;96969.69;;;9.55;100.00
7614;BME280;3848;42.016;23.098;2023-03-03T12:52:00;96974.75;;;9.59;100.00
7614;BME280;3848;42.016;23.098;2023-03-03T12:54:48;96974.69;;;9.65;100.00
7614;BME280;3848;42.016;23.098;2023-03-03T12:57:27;96970.44;;;9.67;100.00
7614;BME280;3848;42.016;23.098;2023-03-03T13:00:11;96979.75;;;9.68;100.00
7614;BME280;3848;42.016;23.098;2023-03-03T13:02:55;96974.63;;;9.74;100.00
7614;BME280;3848;42.016;23.098;2023-03-03T13:05:28;96977.97;;;9.80;100.00
7614;BME280;3848;42.016;23.098;2023-03-03T13:08:23;96977.97;;;9.80;100.00
7614;BME280;3848;42.016;23.098;2023-03-03T13:11:00;96977.97;;;9.76;100.00
7614;BME280;3848;42.016;23.098;2023-03-03T13:13:38;96971.31;;;9.66;100.00
7614;BME280;3848;42.016;23.098;2023-03-03T13:16:10;96969.63;;;9.65;100.00
7614;BME280;3848;42.016;23.098;2023-03-03T13:18:48;96956.94;;;9.65;100.00
7614;BME280;3848;42.016;23.098;2023-03-03T13:21:21;96956.00;;;9.74;100.00
7614;BME280;3848;42.016;23.098;2023-03-03T13:23:55;96958.47;;;9.85;100.00
7614;BME280;3848;42.016;23.098;2023-03-03T13:26:30;96962.59;;;10.01;100.00
7614;BME280;3848;42.016;23.098;2023-03-03T13:29:10;96948.09;;;10.12;100.00
7614;BME280;3848;42.016;23.098;2023-03-03T13:31:45;96958.13;;;10.27;100.00
7614;BME280;3848;42.016;23.098;2023-03-03T13:34:22;96953.00;;;10.32;100.00
7614;BME280;3848;42.016;23.098;2023-03-03T13:36:53;96961.50;;;10.29;100.00
7614;BME280;3848;42.016;23.098;2023-03-03T13:39:24;96958.16;;;10.26;100.00
7614;BME280;3848;42.016;23.098;2023-03-03T13:41:56;96956.31;;;10.37;100.00
7614;BME280;3848;42.016;23.098;2023-03-03T13:44:30;96959.66;;;10.45;100.00
7614;BME280;3848;42.016;23.098;2023-03-03T13:47:12;96939.28;;;10.50;100.00
7614;BME280;3848;42.016;23.098;2023-03-03T13:49:54;96936.63;;;10.59;100.00